Time;durP1;ratioP1;P1;durP2;ratioP2;P2;SDS_P1;SDS_P2;PMS_P1;PMS_P2;Temp;Humidity;BMP_temperature;BMP_pressure;BME280_temperature;BME280_humidity;BME280_pressure;Samples;Min_cycle;Max_cycle;Signal;HPM_P1;HPM_P2
2023/07/18 00:00:59;;;;;;;6.80;2.75;;;14.80;99.90;;;;;;5091056;28;20043;-81
2023/07/18 00:03:26;;;;;;;4.15;2.80;;;14.80;99.90;;;;;;5075046;28;20028;-81
2023/07/18 00:05:51;;;;;;;17.92;4.20;;;14.70;99.90;;;;;;5108131;28;20028;-81
2023/07/18 00:08:17;;;;;;;5.70;2.25;;;14.70;99.90;;;;;;5092399;28;20020;-81
2023/07/18 00:10:43;;;;;;;4.43;2.40;;;14.70;99.90;;;;;;5090653;28;20132;-81
2023/07/18 00:13:09;;;;;;;7.38;2.35;;;14.60;99.90;;;;;;5074560;28;20020;-81
2023/07/18 00:15:34;;;;;;;5.22;2.50;;;14.60;99.90;;;;;;5082109;28;20028;-80
2023/07/18 00:18:01;;;;;;;5.28;2.55;;;14.50;99.90;;;;;;5074719;28;20024;-81
2023/07/18 00:20:27;;;;;;;6.75;3.00;;;14.50;99.90;;;;;;5071031;28;20051;-81
2023/07/18 00:22:53;;;;;;;7.45;3.10;;;14.50;99.90;;;;;;5074540;28;20375;-81
2023/07/18 00:25:20;;;;;;;5.75;2.65;;;14.50;99.90;;;;;;5090403;28;20035;-81
2023/07/18 00:27:51;;;;;;;6.43;2.47;;;14.60;99.90;;;;;;5125374;28;20032;-80
2023/07/18 00:30:17;;;;;;;5.03;2.77;;;14.60;99.90;;;;;;5090965;28;20028;-81
2023/07/18 00:32:46;;;;;;;6.50;2.80;;;14.60;99.90;;;;;;5092356;28;20098;-81
2023/07/18 00:35:16;;;;;;;7.38;3.05;;;14.60;99.90;;;;;;5090915;28;20024;-81
2023/07/18 00:37:43;;;;;;;5.28;2.83;;;14.60;99.90;;;;;;5074446;28;20500;-81
2023/07/18 00:40:11;;;;;;;11.25;3.05;;;14.50;99.90;;;;;;5095759;28;20031;-81
2023/07/18 00:42:37;;;;;;;4.93;2.90;;;14.50;99.90;;;;;;5111845;28;20038;-81
2023/07/18 00:45:05;;;;;;;11.55;2.67;;;14.40;99.90;;;;;;5095095;28;20527;-81
2023/07/18 00:47:37;;;;;;;10.23;4.82;;;14.40;99.90;;;;;;5094751;28;20038;-81
2023/07/18 00:50:15;;;;;;;8.10;3.53;;;14.40;99.90;;;;;;5094704;28;20042;-81
2023/07/18 00:52:54;;;;;;;8.80;2.60;;;14.30;99.90;;;;;;5077546;28;20028;-81
2023/07/18 00:55:20;;;;;;;6.20;3.40;;;14.30;99.90;;;;;;5094608;28;20055;-81
2023/07/18 00:57:47;;;;;;;9.07;3.20;;;14.30;99.90;;;;;;5076424;28;20475;-81
2023/07/18 01:00:14;;;;;;;5.88;3.38;;;14.30;99.90;;;;;;5077921;28;20479;-81
2023/07/18 01:02:44;;;;;;;7.05;3.25;;;14.30;99.90;;;;;;5096219;28;20493;-80
2023/07/18 01:05:16;;;;;;;6.50;3.42;;;14.30;99.90;;;;;;5103397;28;20111;-80
2023/07/18 01:07:42;;;;;;;8.63;3.38;;;14.30;99.90;;;;;;5093712;28;20038;-80
2023/07/18 01:10:26;;;;;;;6.88;4.18;;;14.30;99.90;;;;;;5094327;28;20042;-81
2023/07/18 01:13:00;;;;;;;7.38;3.60;;;14.30;99.90;;;;;;5094081;28;20024;-80
2023/07/18 01:15:29;;;;;;;8.27;3.58;;;14.20;99.90;;;;;;5077306;28;20031;-81
2023/07/18 01:17:55;;;;;;;7.50;3.17;;;14.10;99.90;;;;;;5077581;28;20035;-81
2023/07/18 01:20:26;;;;;;;6.22;3.15;;;14.10;99.90;;;;;;5077156;28;20046;-81
2023/07/18 01:22:57;;;;;;;9.30;3.75;;;14.10;99.90;;;;;;5093437;28;20016;-81
2023/07/18 01:25:24;;;;;;;9.02;3.40;;;14.20;99.90;;;;;;5077578;28;20087;-80
2023/07/18 01:27:52;;;;;;;6.78;3.00;;;14.20;99.90;;;;;;5093946;28;20039;-81
2023/07/18 01:30:19;;;;;;;5.35;2.85;;;14.20;99.90;;;;;;5076895;28;20024;-81
2023/07/18 01:32:48;;;;;;;11.98;4.00;;;14.20;99.90;;;;;;5094086;28;20025;-81
2023/07/18 01:35:15;;;;;;;6.03;3.50;;;14.20;99.90;;;;;;5077676;28;20036;-81
2023/07/18 01:37:44;;;;;;;8.93;3.97;;;14.20;99.90;;;;;;5110368;28;20016;-81
2023/07/18 01:40:15;;;;;;;7.22;3.53;;;14.10;99.90;;;;;;5076573;28;20032;-81
2023/07/18 01:42:45;;;;;;;5.95;3.33;;;14.00;99.90;;;;;;5093373;28;20031;-81
2023/07/18 01:45:11;;;;;;;11.77;4.60;;;13.90;99.90;;;;;;5093589;28;20028;-81
2023/07/18 01:47:38;;;;;;;6.93;3.33;;;13.80;99.90;;;;;;5076830;28;20443;-81
2023/07/18 01:50:06;;;;;;;7.68;3.70;;;13.70;99.90;;;;;;5076128;28;20034;-81
2023/07/18 01:52:32;;;;;;;10.27;3.72;;;13.70;99.90;;;;;;5093370;28;20028;-81
2023/07/18 01:54:59;;;;;;;7.95;3.20;;;13.60;99.90;;;;;;5076805;28;20036;-81
2023/07/18 01:57:29;;;;;;;6.57;3.55;;;13.50;99.90;;;;;;5093558;28;20028;-81
2023/07/18 01:59:55;;;;;;;8.00;2.90;;;13.40;99.90;;;;;;5110224;28;20024;-81
2023/07/18 02:02:21;;;;;;;10.13;3.83;;;13.30;99.90;;;;;;5093164;28;20035;-81
2023/07/18 02:04:48;;;;;;;9.32;3.78;;;13.30;99.90;;;;;;5093443;28;20036;-81
2023/07/18 02:07:13;;;;;;;10.00;3.38;;;13.30;99.90;;;;;;5076611;28;20274;-81
2023/07/18 02:09:39;;;;;;;8.73;3.88;;;13.20;99.90;;;;;;5127371;27;20032;-81
2023/07/18 02:12:06;;;;;;;5.88;3.33;;;13.20;99.90;;;;;;5092769;28;20024;-81
2023/07/18 02:14:32;;;;;;;8.18;3.60;;;13.20;99.90;;;;;;5094305;28;20031;-81
2023/07/18 02:16:58;;;;;;;9.90;4.35;;;13.20;99.90;;;;;;5093357;28;20020;-81
2023/07/18 02:19:24;;;;;;;7.72;3.33;;;13.20;99.90;;;;;;5076279;28;20061;-81
2023/07/18 02:21:49;;;;;;;6.13;3.35;;;13.10;99.90;;;;;;5092885;28;20077;-81
2023/07/18 02:24:15;;;;;;;8.27;3.70;;;13.00;99.90;;;;;;5092888;28;20471;-81
2023/07/18 02:26:41;;;;;;;7.43;3.45;;;13.00;99.90;;;;;;5092706;28;20384;-81
2023/07/18 02:29:06;;;;;;;8.50;3.58;;;12.90;99.90;;;;;;5075672;28;20467;-81
2023/07/18 02:31:33;;;;;;;6.80;4.00;;;12.90;99.90;;;;;;5093811;28;20025;-81
2023/07/18 02:33:58;;;;;;;4.75;2.97;;;12.80;99.90;;;;;;5126930;27;20028;-81
2023/07/18 02:36:24;;;;;;;8.35;3.28;;;12.80;99.90;;;;;;5109664;28;20032;-80
2023/07/18 02:38:51;;;;;;;8.82;3.85;;;12.70;99.90;;;;;;5092459;28;20024;-81
2023/07/18 02:41:17;;;;;;;5.07;3.42;;;12.70;99.90;;;;;;5093629;28;20032;-81
2023/07/18 02:43:43;;;;;;;7.13;3.50;;;12.60;99.90;;;;;;5075806;28;20050;-81
2023/07/18 02:46:08;;;;;;;7.30;3.90;;;12.70;99.90;;;;;;5071989;28;20637;-81
2023/07/18 02:48:35;;;;;;;8.60;3.60;;;12.70;99.90;;;;;;5092359;28;20382;-81
2023/07/18 02:51:02;;;;;;;5.75;3.42;;;12.60;99.90;;;;;;5092269;28;20391;-80
2023/07/18 02:53:27;;;;;;;6.05;3.55;;;12.60;99.90;;;;;;5126487;27;20024;-81
2023/07/18 02:55:53;;;;;;;10.18;3.80;;;12.60;99.90;;;;;;5091863;28;20559;-80
2023/07/18 02:58:22;;;;;;;7.97;3.28;;;12.60;99.90;;;;;;5075486;28;20049;-81
2023/07/18 03:00:50;;;;;;;7.88;3.67;;;12.50;99.90;;;;;;5075572;28;20032;-81
2023/07/18 03:03:16;;;;;;;7.38;3.70;;;12.50;99.90;;;;;;5092557;28;20034;-81
2023/07/18 03:05:41;;;;;;;12.32;4.05;;;12.40;99.90;;;;;;5075397;28;20051;-80
2023/07/18 03:08:07;;;;;;;7.75;3.70;;;12.40;99.90;;;;;;5108845;28;20042;-80
2023/07/18 03:10:33;;;;;;;5.93;4.25;;;12.40;99.90;;;;;;5091870;28;20031;-80
2023/07/18 03:12:58;;;;;;;9.63;4.38;;;12.40;99.90;;;;;;5075183;28;20012;-80
2023/07/18 03:15:27;;;;;;;8.60;3.90;;;12.40;99.90;;;;;;5092101;28;20020;-81
2023/07/18 03:17:53;;;;;;;12.57;3.72;;;12.30;99.90;;;;;;5075201;28;19972;-80
2023/07/18 03:20:20;;;;;;;10.25;4.35;;;12.40;99.90;;;;;;5091918;28;20020;-81
2023/07/18 03:22:47;;;;;;;8.15;4.13;;;12.40;99.90;;;;;;5074863;28;20038;-81
2023/07/18 03:25:14;;;;;;;7.47;3.97;;;12.40;99.90;;;;;;5092915;28;20459;-81
2023/07/18 03:27:40;;;;;;;6.32;3.55;;;12.40;99.90;;;;;;5074871;28;20085;-81
2023/07/18 03:30:06;;;;;;;7.78;3.58;;;12.60;99.90;;;;;;5074876;28;20027;-81
2023/07/18 03:32:33;;;;;;;11.93;4.13;;;12.60;99.90;;;;;;5075000;28;20074;-81
2023/07/18 03:34:59;;;;;;;9.90;4.07;;;12.70;99.90;;;;;;5093046;28;20020;-81
2023/07/18 03:37:27;;;;;;;9.30;4.78;;;12.80;99.90;;;;;;5091135;28;20024;-80
2023/07/18 03:39:53;;;;;;;6.35;3.88;;;12.90;99.90;;;;;;5105360;28;20534;-80
2023/07/18 03:42:19;;;;;;;6.63;3.67;;;12.80;99.90;;;;;;5084818;28;20119;-80
2023/07/18 03:44:44;;;;;;;8.90;3.42;;;12.90;99.90;;;;;;5107936;28;20024;-80
2023/07/18 03:47:11;;;;;;;8.00;4.07;;;12.90;99.90;;;;;;5100907;28;19912;-80
2023/07/18 03:49:36;;;;;;;8.63;4.13;;;13.00;99.90;;;;;;5075451;28;20024;-80
2023/07/18 03:52:04;;;;;;;6.00;3.53;;;12.90;99.90;;;;;;5092445;28;20103;-80
2023/07/18 03:54:29;;;;;;;8.32;3.90;;;13.00;99.90;;;;;;5090795;28;20029;-80
2023/07/18 03:56:55;;;;;;;8.23;3.97;;;13.00;99.90;;;;;;5092146;28;20020;-81
2023/07/18 03:59:21;;;;;;;20.10;3.97;;;13.00;99.90;;;;;;5092436;28;20024;-81
2023/07/18 04:01:47;;;;;;;7.10;3.83;;;13.10;99.90;;;;;;5125341;28;20025;-81
2023/07/18 04:04:13;;;;;;;11.95;3.35;;;13.30;99.90;;;;;;5091073;28;20383;-81
2023/07/18 04:06:39;;;;;;;7.63;3.80;;;13.40;99.90;;;;;;5074247;28;20501;-81
2023/07/18 04:09:05;;;;;;;7.80;2.97;;;13.50;99.90;;;;;;5107246;28;20067;-81
2023/07/18 04:11:31;;;;;;;5.22;3.17;;;13.60;99.90;;;;;;5091754;28;20032;-80
2023/07/18 04:13:57;;;;;;;8.10;3.50;;;13.70;99.90;;;;;;5083188;28;20035;-81
2023/07/18 04:16:23;;;;;;;6.73;3.53;;;13.70;99.90;;;;;;5098144;28;20081;-80
2023/07/18 04:18:48;;;;;;;;;;;13.80;99.90;;;;;;5129672;27;20020;-80
2023/07/18 04:21:14;;;;;;;8.60;3.30;;;13.80;99.90;;;;;;5129665;27;20514;-80
2023/07/18 04:23:40;;;;;;;7.70;3.80;;;13.70;99.90;;;;;;5095495;28;20040;-81
2023/07/18 04:26:09;;;;;;;9.65;3.50;;;13.70;99.90;;;;;;5129726;27;20067;-80
2023/07/18 04:28:38;;;;;;;6.25;3.40;;;13.70;99.90;;;;;;5095311;28;20154;-80
2023/07/18 04:31:05;;;;;;;11.00;2.70;;;13.70;99.90;;;;;;5078030;28;20031;-80
2023/07/18 04:33:33;;;;;;;5.80;3.50;;;13.60;99.90;;;;;;5094873;28;19908;-81
2023/07/18 04:35:59;;;;;;;8.90;3.45;;;13.60;99.90;;;;;;5077649;28;20060;-81
2023/07/18 04:38:59;;;;;;;7.32;3.38;;;13.70;99.90;;;;;;5094338;28;20427;-81
2023/07/18 04:41:25;;;;;;;8.68;3.42;;;13.80;99.90;;;;;;5111356;28;20032;-80
2023/07/18 04:43:50;;;;;;;;;;;13.90;99.90;;;;;;5111576;28;20031;-81
2023/07/18 04:46:16;;;;;;;;;;;14.10;99.90;;;;;;5110752;28;19976;-81
2023/07/18 04:48:41;;;;;;;;;;;14.20;99.90;;;;;;5127713;27;19915;-80
2023/07/18 04:51:07;;;;;;;;;;;14.30;99.90;;;;;;5109963;28;19977;-80
2023/07/18 04:53:33;;;;;;;;;;;14.50;99.90;;;;;;5127507;27;24933;-81
2023/07/18 04:56:00;;;;;;;;;;;14.60;99.90;;;;;;5093861;28;19944;-81
2023/07/18 04:58:26;;;;;;;;;;;14.70;99.90;;;;;;5094912;28;20037;-81
2023/07/18 05:00:54;;;;;;;;;;;14.70;99.90;;;;;;5093384;28;19965;-80
2023/07/18 05:03:21;;;;;;;;;;;14.70;99.90;;;;;;5094571;28;20042;-80
2023/07/18 05:05:46;;;;;;;;;;;14.80;99.90;;;;;;5126800;27;20329;-81
2023/07/18 05:08:12;;;;;;;;;;;14.70;99.90;;;;;;5093950;28;19976;-81
2023/07/18 05:10:39;;;;;;;;;;;14.80;99.90;;;;;;5127357;27;19916;-80
2023/07/18 05:13:04;;;;;;;;;;;14.80;99.90;;;;;;5109682;28;25153;-81
2023/07/18 05:15:30;;;;;;;;;;;14.80;99.90;;;;;;5093337;28;19947;-81
2023/07/18 05:17:55;;;;;;;;;;;14.80;99.90;;;;;;5109977;28;19983;-81
2023/07/18 05:20:21;;;;;;;;;;;14.90;99.90;;;;;;5093092;28;19908;-81
2023/07/18 05:22:47;;;;;;;;;;;15.00;99.90;;;;;;5110006;28;19908;-80
2023/07/18 05:25:14;;;;;;;;;;;15.00;99.90;;;;;;5108445;28;19995;-80
2023/07/18 05:27:40;;;;;;;;;;;15.10;99.90;;;;;;5109342;28;25051;-81
2023/07/18 05:30:10;;;;;;;;;;;15.10;99.90;;;;;;5109095;28;20424;-81
2023/07/18 05:32:35;;;;;;;;;;;15.20;99.90;;;;;;5126884;27;20628;-81
2023/07/18 05:35:01;;;;;;;;;;;15.30;99.90;;;;;;5094074;28;19904;-81
2023/07/18 05:37:28;;;;;;;;;;;15.30;99.90;;;;;;5126750;27;24168;-81
2023/07/18 05:39:54;;;;;;;;;;;15.40;99.90;;;;;;5084940;28;20034;-81
2023/07/18 05:42:20;;;;;;;;;;;15.50;99.90;;;;;;5122597;27;20359;-81
2023/07/18 05:44:45;;;;;;;;;;;15.60;99.90;;;;;;5121359;27;20407;-80
2023/07/18 05:47:11;;;;;;;;;;;15.70;99.90;;;;;;5082848;28;20125;-80
2023/07/18 05:49:36;;;;;;;;;;;15.70;99.90;;;;;;5099364;28;20332;-80
2023/07/18 05:52:02;;;;;;;;;;;15.80;99.90;;;;;;5120850;27;19920;-81
2023/07/18 05:54:31;;;;;;;;;;;15.90;99.90;;;;;;5068261;28;19908;-81
2023/07/18 05:56:59;;;;;;;;;;;16.00;99.90;;;;;;5085568;28;20389;-80
2023/07/18 05:59:28;;;;;;;;;;;16.10;99.90;;;;;;5077329;28;20035;-80
2023/07/18 06:01:53;;;;;;;;;;;16.20;99.90;;;;;;5090742;28;19912;-80
2023/07/18 06:04:19;;;;;;;;;;;16.30;99.90;;;;;;5103691;28;20393;-80
2023/07/18 06:06:44;;;;;;;;;;;16.30;99.90;;;;;;5080343;28;24073;-80
2023/07/18 06:09:10;;;;;;;;;;;16.40;99.90;;;;;;5120650;27;20559;-80
2023/07/18 06:11:36;;;;;;;;;;;16.50;99.90;;;;;;5085361;28;20314;-80
2023/07/18 06:14:02;;;;;;;;;;;16.50;99.90;;;;;;5085384;28;20371;-80
2023/07/18 06:16:27;;;;;;;;;;;16.60;99.90;;;;;;5108046;28;19908;-80
2023/07/18 06:18:54;;;;;;;;;;;16.70;99.90;;;;;;5082415;28;20041;-80
2023/07/18 06:21:19;;;;;;;;;;;16.80;99.90;;;;;;5103215;28;19947;-80
2023/07/18 06:23:45;;;;;;;;;;;16.90;99.90;;;;;;5084634;28;19943;-80
2023/07/18 06:26:10;;;;;;;;;;;17.00;99.90;;;;;;5087217;28;19962;-80
2023/07/18 06:28:36;;;;;;;;;;;17.10;99.90;;;;;;5101448;28;19908;-80
2023/07/18 06:31:02;;;;;;;;;;;17.20;99.90;;;;;;5090153;28;19912;-81
2023/07/18 06:33:28;;;;;;;;;;;17.30;99.90;;;;;;5112671;27;19998;-80
2023/07/18 06:35:55;;;;;;;;;;;17.30;99.90;;;;;;5117997;27;20002;-80
2023/07/18 06:38:21;;;;;;;;;;;17.40;99.90;;;;;;5085429;28;19908;-80
2023/07/18 06:40:50;;;;;;;;;;;17.50;99.90;;;;;;5088692;28;20327;-80
2023/07/18 06:43:16;;;;;;;;;;;17.60;99.90;;;;;;5111808;27;20688;-80
2023/07/18 06:45:45;;;;;;;;;;;17.70;99.90;;;;;;5100740;28;20364;-80
2023/07/18 06:48:11;;;;;;;;;;;17.80;99.90;;;;;;5109958;27;19908;-80
2023/07/18 06:50:37;;;;;;;;;;;17.90;99.90;;;;;;5086265;28;19958;-80
2023/07/18 06:53:03;;;;;;;;;;;17.90;99.90;;;;;;5080824;28;19908;-80
2023/07/18 06:55:29;;;;;;;;;;;18.00;99.90;;;;;;5083873;28;19919;-81
2023/07/18 06:57:55;;;;;;;;;;;18.00;99.90;;;;;;5077730;28;20034;-80
2023/07/18 07:00:21;;;;;;;;;;;18.10;99.90;;;;;;5088438;28;20044;-80
2023/07/18 07:02:47;;;;;;;;;;;18.20;99.90;;;;;;5099911;28;20417;-80
2023/07/18 07:05:12;;;;;;;;;;;18.30;99.90;;;;;;5079908;28;19999;-81
2023/07/18 07:07:38;;;;;;;;;;;18.40;99.90;;;;;;5081050;28;19911;-80
2023/07/18 07:10:03;;;;;;;;;;;18.50;99.90;;;;;;5088485;28;20654;-81
2023/07/18 07:12:32;;;;;;;;;;;18.70;99.90;;;;;;5088375;28;20000;-80
2023/07/18 07:14:58;;;;;;;;;;;18.70;99.90;;;;;;5089233;28;19943;-80
2023/07/18 07:17:23;;;;;;;;;;;18.60;99.90;;;;;;5105966;28;20422;-80
2023/07/18 07:19:49;;;;;;;;;;;18.60;99.90;;;;;;5090697;28;20059;-80
2023/07/18 07:22:15;;;;;;;;;;;18.70;99.90;;;;;;5090136;28;20035;-81
2023/07/18 07:24:41;;;;;;;;;;;18.80;99.90;;;;;;5082776;28;20007;-80
2023/07/18 07:27:07;;;;;;;;;;;18.90;99.90;;;;;;5111726;27;20050;-80
2023/07/18 07:29:32;;;;;;;;;;;19.00;99.90;;;;;;5081381;28;19911;-79
2023/07/18 07:31:58;;;;;;;;;;;19.00;99.90;;;;;;5101982;28;19943;-80
2023/07/18 07:34:24;;;;;;;;;;;19.10;99.90;;;;;;5087656;28;19911;-80
2023/07/18 07:36:49;;;;;;;;;;;19.20;99.90;;;;;;5104351;28;19916;-80
2023/07/18 07:39:15;;;;;;;;;;;19.30;99.90;;;;;;5123218;27;19912;-80
2023/07/18 07:41:41;;;;;;;;;;;19.30;99.90;;;;;;5099593;28;20038;-80
2023/07/18 07:44:06;;;;;;;;;;;19.40;99.90;;;;;;5071053;28;20304;-80
2023/07/18 07:46:32;;;;;;;;;;;19.40;99.90;;;;;;5086398;28;20038;-80
2023/07/18 07:48:58;;;;;;;;;;;19.40;99.90;;;;;;5118718;27;19957;-80
2023/07/18 07:51:23;;;;;;;;;;;19.50;99.90;;;;;;5069637;28;20229;-80
2023/07/18 07:53:49;;;;;;;;;;;19.60;99.90;;;;;;5084089;28;19916;-80
2023/07/18 07:56:15;;;;;;;;;;;19.70;99.90;;;;;;5085490;28;19912;-80
2023/07/18 07:58:40;;;;;;;;;;;20.10;99.90;;;;;;5083958;28;20042;-81
2023/07/18 08:01:06;;;;;;;;;;;21.20;99.90;;;;;;5085200;28;19912;-80
2023/07/18 08:03:32;;;;;;;;;;;22.70;99.90;;;;;;5100083;28;20496;-80
2023/07/18 08:05:58;;;;;;;;;;;24.40;98.40;;;;;;5086484;28;19908;-81
2023/07/18 08:08:25;;;;;;;;;;;25.40;95.60;;;;;;5090663;28;20343;-80
2023/07/18 08:10:50;;;;;;;;;;;26.30;92.60;;;;;;5069900;28;20003;-80
2023/07/18 08:13:17;;;;;;;;;;;26.50;90.30;;;;;;5098599;28;20003;-81
2023/07/18 08:15:43;;;;;;;;;;;26.70;88.20;;;;;;5109367;28;20394;-80
2023/07/18 08:18:09;;;;;;;;;;;26.70;86.30;;;;;;5109252;28;24122;-80
2023/07/18 08:20:35;;;;;;;;;;;26.40;85.20;;;;;;5122726;27;19955;-80
2023/07/18 08:23:01;;;;;;;;;;;27.00;84.50;;;;;;5125539;28;19908;-81
2023/07/18 08:25:26;;;;;;;;;;;26.90;84.50;;;;;;5108638;28;19973;-81
2023/07/18 08:27:52;;;;;;;;;;;27.20;82.90;;;;;;5125597;28;19907;-81
2023/07/18 08:30:19;;;;;;;;;;;27.50;82.20;;;;;;5092635;28;19912;-80
2023/07/18 08:32:45;;;;;;;;;;;26.60;81.40;;;;;;5091250;28;19950;-80
2023/07/18 08:35:11;;;;;;;;;;;26.70;81.60;;;;;;5125484;28;19950;-81
2023/07/18 08:37:39;;;;;;;;;;;26.80;81.60;;;;;;5091411;28;20379;-81
2023/07/18 08:40:05;;;;;;;;;;;27.70;80.60;;;;;;5107187;28;19970;-81
2023/07/18 08:42:32;;;;;;;;;;;27.80;78.00;;;;;;5090519;28;19939;-80
2023/07/18 08:44:57;;;;;;;;;;;28.60;74.80;;;;;;5092648;28;19981;-81
2023/07/18 08:47:23;;;;;;;;;;;29.70;74.20;;;;;;5108028;28;19912;-81
2023/07/18 08:49:49;;;;;;;;;;;30.30;70.00;;;;;;5090937;28;20282;-81
2023/07/18 08:52:14;;;;;;;;;;;30.50;70.10;;;;;;5107769;28;19916;-81
2023/07/18 08:54:40;;;;;;;;;;;29.50;68.40;;;;;;5125122;28;20612;-81
2023/07/18 08:57:06;;;;;;;;;;;29.90;69.30;;;;;;5091010;28;20310;-80
2023/07/18 08:59:31;;;;;;;;;;;29.50;68.00;;;;;;5108395;28;19908;-81
2023/07/18 09:01:57;;;;;;;;;;;29.90;66.40;;;;;;5094201;28;20286;-81
2023/07/18 09:04:23;;;;;;;;;;;30.70;64.40;;;;;;5110819;28;19962;-81
2023/07/18 09:06:50;;;;;;;;;;;30.90;63.40;;;;;;5094837;28;19912;-81
2023/07/18 09:09:17;;;;;;;;;;;31.50;63.00;;;;;;5111144;28;20377;-81
2023/07/18 09:11:52;;;;;;;;;;;32.00;62.40;;;;;;5128160;27;19908;-81
2023/07/18 09:14:24;;;;;;;;;;;32.40;61.20;;;;;;5128063;27;19908;-81
2023/07/18 09:16:50;;;;;;;;;;;31.10;59.80;;;;;;5094109;28;20364;-81
2023/07/18 09:19:16;;;;;;;;;;;29.90;61.60;;;;;;5093637;28;19904;-81
2023/07/18 09:21:41;;;;;;;;;;;28.80;62.20;;;;;;5106521;28;19908;-81
2023/07/18 09:24:07;;;;;;;;;;;29.30;63.90;;;;;;5104241;28;19987;-81
2023/07/18 09:26:33;;;;;;;;;;;29.90;63.60;;;;;;5091730;28;19914;-81
2023/07/18 09:28:59;;;;;;;;;;;30.70;62.90;;;;;;5080009;28;20362;-81
2023/07/18 09:31:25;;;;;;;;;;;31.10;61.20;;;;;;5092513;28;19912;-81
2023/07/18 09:33:52;;;;;;;;;;;31.10;61.60;;;;;;5082436;28;19915;-81
2023/07/18 09:36:19;;;;;;;;;;;31.00;59.40;;;;;;5092741;28;20260;-81
2023/07/18 09:38:46;;;;;;;;;;;31.10;59.30;;;;;;5084544;28;20414;-81
2023/07/18 09:41:13;;;;;;;;;;;32.20;58.50;;;;;;5083845;28;19908;-81
2023/07/18 09:43:40;;;;;;;;;;;32.50;57.30;;;;;;5101655;28;19909;-81
2023/07/18 09:46:07;;;;;;;;;;;32.70;56.70;;;;;;5098197;28;19919;-82
2023/07/18 09:48:32;;;;;;;;;;;32.60;56.30;;;;;;5091863;28;19951;-81
2023/07/18 09:50:59;;;;;;;;;;;32.40;57.50;;;;;;5080545;28;19959;-81
2023/07/18 09:53:27;;;;;;;;;;;32.30;56.70;;;;;;5093843;28;19912;-81
2023/07/18 09:55:52;;;;;;;;;;;31.90;58.10;;;;;;5088722;28;19909;-81
2023/07/18 09:58:20;;;;;;;;;;;32.20;57.80;;;;;;5102491;28;19916;-81
2023/07/18 10:00:47;;;;;;;;;;;32.10;57.70;;;;;;5120000;27;19919;-81
2023/07/18 10:03:12;;;;;;;;;;;32.40;57.10;;;;;;5102199;28;19909;-81
2023/07/18 10:05:38;;;;;;;;;;;32.50;56.80;;;;;;5102780;28;20382;-81
2023/07/18 10:08:05;;;;;;;;;;;32.20;56.30;;;;;;5078940;28;19963;-81
2023/07/18 10:10:31;;;;;;;;;;;31.70;58.10;;;;;;5071079;28;19912;-81
2023/07/18 10:12:58;;;;;;;;;;;31.40;57.10;;;;;;5075635;28;20008;-81
2023/07/18 10:15:24;;;;;;;;;;;30.60;57.30;;;;;;5108540;28;19923;-82
2023/07/18 10:17:50;;;;;;;;;;;29.90;57.60;;;;;;5088541;28;19915;-81
2023/07/18 10:20:21;;;;;;;;;;;28.90;59.40;;;;;;5093250;28;19907;-81
2023/07/18 10:22:48;;;;;;;;;;;28.90;60.50;;;;;;5110320;28;20446;-81
2023/07/18 10:25:14;;;;;;;;;;;29.10;61.80;;;;;;5093235;28;19910;-81
2023/07/18 10:27:40;;;;;;;;;;;28.80;63.40;;;;;;5110134;28;19908;-82
2023/07/18 10:30:07;;;;;;;;;;;28.60;60.50;;;;;;5093036;28;19916;-82
2023/07/18 10:32:34;;;;;;;;;;;27.70;62.00;;;;;;5093053;28;20398;-81
2023/07/18 10:35:00;;;;;;;;;;;27.20;65.60;;;;;;5109709;28;20006;-81
2023/07/18 10:37:26;;;;;;;;;;;27.00;65.30;;;;;;5126683;27;19912;-81
2023/07/18 10:39:53;;;;;;;;;;;26.40;65.70;;;;;;5109770;28;19908;-81
2023/07/18 10:42:26;;;;;;;;;;;26.40;67.20;;;;;;5093972;28;19915;-81
2023/07/18 10:44:54;;;;;;;;;;;26.30;67.30;;;;;;5092863;28;19907;-81
2023/07/18 10:47:20;;;;;;;;;;;26.80;68.40;;;;;;5089723;28;19916;-81
2023/07/18 10:49:49;;;;;;;;;;;27.40;66.70;;;;;;5092983;28;20347;-81
2023/07/18 10:52:15;;;;;;;;;;;27.50;66.20;;;;;;5093667;28;19912;-81
2023/07/18 10:54:45;;;;;;;;;;;27.40;65.10;;;;;;5093949;28;19912;-81
2023/07/18 10:57:10;;;;;;;;;;;27.60;64.70;;;;;;5109290;28;20371;-81
2023/07/18 10:59:39;;;;;;;;;;;28.00;64.80;;;;;;5094036;28;20007;-81
2023/07/18 11:02:05;;;;;;;;;;;28.90;63.30;;;;;;5075589;28;19912;-81
2023/07/18 11:04:31;;;;;;;;;;;29.80;62.80;;;;;;5082415;28;20288;-81
2023/07/18 11:06:57;;;;;;;;;;;30.00;61.30;;;;;;5108544;28;19915;-81
2023/07/18 11:09:23;;;;;;;;;;;30.50;60.20;;;;;;5089287;28;19922;-82
2023/07/18 11:11:49;;;;;;;;;;;30.70;59.60;;;;;;5089194;28;19908;-81
2023/07/18 11:14:15;;;;;;;;;;;30.80;60.00;;;;;;5090699;28;19911;-81
2023/07/18 11:16:41;;;;;;;;;;;30.80;61.00;;;;;;5084346;28;19914;-82
2023/07/18 11:19:07;;;;;;;;;;;30.60;60.30;;;;;;5103128;28;19979;-82
2023/07/18 11:21:34;;;;;;;;;;;30.30;59.40;;;;;;5101846;28;19954;-82
2023/07/18 11:23:59;;;;;;;;;;;29.60;62.00;;;;;;5090820;28;19908;-82
2023/07/18 11:26:25;;;;;;;;;;;29.80;62.20;;;;;;5118997;27;20522;-81
2023/07/18 11:28:51;;;;;;;;;;;29.30;60.40;;;;;;5084990;28;19955;-82
2023/07/18 11:31:20;;;;;;;;;;;29.00;62.10;;;;;;5087653;28;19912;-81
2023/07/18 11:33:49;;;;;;;;;;;29.00;61.80;;;;;;5116004;27;19915;-81
2023/07/18 11:36:15;;;;;;;;;;;28.70;61.90;;;;;;5084597;28;19908;-81
2023/07/18 11:38:41;;;;;;;;;;;28.90;64.30;;;;;;5088125;28;20625;-81
2023/07/18 11:41:14;;;;;;;;;;;29.40;63.30;;;;;;5106462;28;19908;-81
2023/07/18 11:43:41;;;;;;;;;;;29.10;62.80;;;;;;5082730;28;19915;-82
2023/07/18 11:46:08;;;;;;;;;;;28.80;63.10;;;;;;5084811;28;19919;-81
2023/07/18 11:48:33;;;;;;;;;;;28.60;64.70;;;;;;5081345;28;19979;-81
2023/07/18 11:51:03;;;;;;;;;;;28.30;65.60;;;;;;5074638;28;19963;-81
2023/07/18 11:53:30;;;;;;;;;;;28.10;65.70;;;;;;5079971;28;19915;-81
2023/07/18 11:55:56;;;;;;;;;;;28.50;66.80;;;;;;5074616;28;19909;-81
2023/07/18 11:58:22;;;;;;;;;;;29.00;66.30;;;;;;5118029;28;20517;-81
2023/07/18 12:00:47;;;;;;;;;;;29.40;64.20;;;;;;5092877;28;19995;-81
2023/07/18 12:03:13;;;;;;;;;;;29.50;64.40;;;;;;5099398;28;19909;-81
2023/07/18 12:05:38;;;;;;;;;;;29.50;62.80;;;;;;5079249;28;19916;-82
2023/07/18 12:08:04;;;;;;;;;;;29.80;62.90;;;;;;5080070;28;20271;-81
2023/07/18 12:10:32;;;;;;;;;;;30.10;62.70;;;;;;5080333;28;19991;-81
2023/07/18 12:12:57;;;;;;;;;;;30.50;63.20;;;;;;5087794;28;19908;-81
2023/07/18 12:15:23;;;;;;;;;;;29.90;63.20;;;;;;5124063;28;20366;-81
2023/07/18 12:17:49;;;;;;;;;;;29.80;62.10;;;;;;5067779;28;19912;-81
2023/07/18 12:20:15;;;;;;;;;;;29.40;61.20;;;;;;5094478;28;19914;-81
2023/07/18 12:23:05;;;;;;;;;;;29.10;62.60;;;;;;5082679;28;19987;-81
2023/07/18 12:25:31;;;;;;;;;;;29.30;62.60;;;;;;5086584;28;20274;-82
2023/07/18 12:28:00;;;;;;;;;;;29.60;62.40;;;;;;5108977;28;20322;-81
2023/07/18 12:30:26;;;;;;;;;;;29.80;62.90;;;;;;5125254;28;20274;-82
2023/07/18 12:32:53;;;;;;;;;;;29.60;62.60;;;;;;5125405;28;19939;-82
2023/07/18 12:35:19;;;;;;;;;;;29.70;64.50;;;;;;5110613;28;19939;-82
2023/07/18 12:37:45;;;;;;;;;;;30.10;63.30;;;;;;5112093;28;20290;-81
2023/07/18 12:40:11;;;;;;;;;;;30.40;62.10;;;;;;5095162;28;19960;-81
2023/07/18 12:42:36;;;;;;;;;;;29.70;63.30;;;;;;5078351;28;20591;-82
2023/07/18 12:45:02;;;;;;;;;;;29.00;64.70;;;;;;5112368;28;19907;-82
2023/07/18 12:47:28;;;;;;;;;;;28.60;68.20;;;;;;5095010;28;19914;-81
2023/07/18 12:49:53;;;;;;;;;;;29.30;65.00;;;;;;5095160;28;19916;-82
2023/07/18 12:52:19;;;;;;;;;;;29.80;63.50;;;;;;5094516;28;19908;-82
2023/07/18 12:54:45;;;;;;;;;;;30.20;63.50;;;;;;5112363;28;20351;-81
2023/07/18 12:57:10;;;;;;;;;;;30.00;64.50;;;;;;5090298;28;19908;-82
2023/07/18 12:59:36;;;;;;;;;;;30.50;63.40;;;;;;5087026;28;19919;-82
2023/07/18 13:02:01;;;;;;;;;;;30.80;61.70;;;;;;5111431;28;20291;-82
2023/07/18 13:04:27;;;;;;;;;;;31.30;61.60;;;;;;5128702;27;19918;-82
2023/07/18 13:06:52;;;;;;;;;;;32.10;60.90;;;;;;5111823;28;19917;-82
2023/07/18 13:09:19;;;;;;;;;;;33.10;61.00;;;;;;5091882;28;19920;-82
2023/07/18 13:11:46;;;;;;;;;;;33.20;60.00;;;;;;5128812;27;19939;-82
2023/07/18 13:14:13;;;;;;;;;;;32.10;59.90;;;;;;5077838;28;19947;-81
2023/07/18 13:16:39;;;;;;;;;;;31.40;61.00;;;;;;5111519;28;19977;-82
2023/07/18 13:19:04;;;;;;;;;;;31.80;60.30;;;;;;5094632;28;19916;-82
2023/07/18 13:21:30;;;;;;;;;;;31.90;59.60;;;;;;5095799;28;20635;-82
2023/07/18 13:23:55;;;;;;;;;;;32.10;60.10;;;;;;5089295;28;19954;-82
2023/07/18 13:26:21;;;;;;;;;;;31.80;59.10;;;;;;5092753;28;19915;-81
2023/07/18 13:28:47;;;;;;;;;;;31.80;58.70;;;;;;5086499;28;19919;-82
2023/07/18 13:31:13;;;;;;;;;;;31.50;59.70;;;;;;5094056;28;20358;-81
2023/07/18 13:33:38;;;;;;;;;;;31.90;59.60;;;;;;5111000;28;19935;-82
2023/07/18 13:36:05;;;;;;;;;;;32.20;58.10;;;;;;5094014;28;20355;-82
2023/07/18 13:38:30;;;;;;;;;;;31.90;59.60;;;;;;5111103;28;19942;-82
2023/07/18 13:40:56;;;;;;;;;;;32.30;58.90;;;;;;5094372;28;19955;-82